createdAt,value
2023-01-21T00:01:16.929Z,1.00
2023-01-21T00:03:46.801Z,1.00
2023-01-21T00:06:15.953Z,1.00
2023-01-21T00:08:44.341Z,1.00
2023-01-21T00:11:15.423Z,1.00
2023-01-21T00:13:44.356Z,1.00
2023-01-21T00:16:13.461Z,1.00
2023-01-21T00:18:42.153Z,1.00
2023-01-21T00:21:11.760Z,1.00
2023-01-21T00:23:39.675Z,0.90
2023-01-21T00:26:11.081Z,0.90
2023-01-21T00:28:39.894Z,0.90
2023-01-21T00:31:09.051Z,0.90
2023-01-21T00:33:37.172Z,0.90
2023-01-21T00:36:07.164Z,0.90
2023-01-21T00:38:37.376Z,0.90
2023-01-21T00:41:07.853Z,0.80
2023-01-21T00:43:36.854Z,0.80
2023-01-21T00:46:05.118Z,0.80
2023-01-21T00:48:33.573Z,0.80
2023-01-21T00:51:01.801Z,0.80
2023-01-21T00:53:31.714Z,0.70
2023-01-21T00:56:02.130Z,0.70
2023-01-21T00:58:30.884Z,0.70
2023-01-21T01:01:02.989Z,0.70
2023-01-21T01:03:31.515Z,0.60
2023-01-21T01:06:04.259Z,0.60
2023-01-21T01:08:33.125Z,0.70
2023-01-21T01:11:03.791Z,0.70
2023-01-21T01:13:32.653Z,0.70
2023-01-21T01:16:01.766Z,0.80
2023-01-21T01:18:31.242Z,0.70
2023-01-21T01:20:59.621Z,0.60
2023-01-21T01:23:27.786Z,0.50
2023-01-21T01:25:57.239Z,0.50
2023-01-21T01:28:27.079Z,0.50
2023-01-21T01:30:55.518Z,0.40
2023-01-21T01:33:24.255Z,0.40
2023-01-21T01:35:52.542Z,0.50
2023-01-21T01:38:22.939Z,0.40
2023-01-21T01:40:53.194Z,0.40
2023-01-21T01:43:23.729Z,0.50
2023-01-21T01:45:53.967Z,0.50
2023-01-21T01:48:25.690Z,0.40
2023-01-21T01:50:54.727Z,0.40
2023-01-21T01:53:22.806Z,0.20
2023-01-21T01:55:51.179Z,0.20
2023-01-21T01:58:21.864Z,0.00
2023-01-21T02:00:50.039Z,-0.10
2023-01-21T02:03:37.271Z,-0.20
2023-01-21T02:06:05.602Z,-0.20
2023-01-21T02:08:36.269Z,-0.40
2023-01-21T02:11:11.907Z,-0.40
2023-01-21T02:13:41.066Z,-0.60
2023-01-21T02:16:41.683Z,-0.50
2023-01-21T02:19:45.230Z,-0.50
2023-01-21T02:22:23.987Z,-0.50
2023-01-21T02:25:27.477Z,-0.70
2023-01-21T02:28:23.150Z,-0.90
2023-01-21T02:31:32.914Z,-1.20
2023-01-21T02:34:12.696Z,-1.30
2023-01-21T02:36:51.570Z,-1.50
2023-01-21T02:39:29.139Z,-1.60
2023-01-21T02:42:07.006Z,-1.70
2023-01-21T02:44:41.787Z,-1.80
2023-01-21T02:47:20.129Z,-1.80
2023-01-21T02:49:55.727Z,-1.90
2023-01-21T02:52:25.521Z,-1.90
2023-01-21T02:54:58.859Z,-1.90
2023-01-21T02:57:45.476Z,-2.00
2023-01-21T03:00:19.720Z,-2.10
2023-01-21T03:03:12.858Z,-2.10
2023-01-21T03:05:57.690Z,-2.20
2023-01-21T03:08:33.409Z,-2.20
2023-01-21T03:11:10.193Z,-2.20
2023-01-21T03:14:00.768Z,-2.20
2023-01-21T03:16:51.961Z,-2.30
2023-01-21T03:19:22.507Z,-2.30
2023-01-21T03:21:52.436Z,-2.30
2023-01-21T03:24:21.616Z,-2.30
2023-01-21T03:26:53.681Z,-2.40
2023-01-21T03:29:25.122Z,-2.40
2023-01-21T03:31:57.724Z,-2.40
2023-01-21T03:34:29.011Z,-2.50
2023-01-21T03:37:02.098Z,-2.50
2023-01-21T03:39:34.891Z,-2.50
2023-01-21T03:42:03.686Z,-2.60
2023-01-21T03:44:31.774Z,-2.60
2023-01-21T03:47:05.636Z,-2.70
2023-01-21T03:49:35.690Z,-2.70
2023-01-21T03:52:06.775Z,-2.70
2023-01-21T03:54:34.742Z,-2.70
2023-01-21T03:57:02.661Z,-2.70
2023-01-21T03:59:30.628Z,-2.60
2023-01-21T04:01:58.653Z,-2.60
2023-01-21T04:04:26.646Z,-2.60
2023-01-21T04:06:54.729Z,-2.60
2023-01-21T04:09:24.389Z,-2.60
2023-01-21T04:11:52.513Z,-2.60
2023-01-21T04:14:20.703Z,-2.60
2023-01-21T04:16:48.703Z,-2.60
2023-01-21T04:19:16.923Z,-2.60
2023-01-21T04:21:45.210Z,-2.70
2023-01-21T04:24:13.356Z,-2.70
2023-01-21T04:26:43.121Z,-2.60
2023-01-21T04:29:11.280Z,-2.70
2023-01-21T04:31:39.630Z,-2.70
2023-01-21T04:34:07.936Z,-2.70
2023-01-21T04:36:36.168Z,-2.70
2023-01-21T04:39:04.468Z,-2.70
2023-01-21T04:41:32.676Z,-2.70
2023-01-21T04:44:02.079Z,-2.80
2023-01-21T04:46:30.270Z,-2.70
2023-01-21T04:48:58.343Z,-2.70
2023-01-21T04:51:26.547Z,-2.70
2023-01-21T04:53:54.805Z,-2.60
2023-01-21T04:56:23.005Z,-2.60
2023-01-21T04:58:51.144Z,-2.70
2023-01-21T05:01:20.733Z,-2.70
2023-01-21T05:03:48.962Z,-2.70
2023-01-21T05:06:16.985Z,-2.70
2023-01-21T05:08:45.173Z,-2.80
2023-01-21T05:11:16.480Z,-2.80
2023-01-21T05:13:44.553Z,-2.80
2023-01-21T05:16:14.375Z,-2.90
2023-01-21T05:18:46.684Z,-2.90
2023-01-21T05:21:17.227Z,-2.80
2023-01-21T05:23:45.594Z,-2.80
2023-01-21T05:26:13.687Z,-2.80
2023-01-21T05:28:41.815Z,-2.90
2023-01-21T05:31:10.077Z,-2.80
2023-01-21T05:33:38.522Z,-2.80
2023-01-21T05:36:09.076Z,-2.80
2023-01-21T05:38:37.365Z,-2.90
2023-01-21T05:41:05.875Z,-2.80
2023-01-21T05:43:34.130Z,-2.90
2023-01-21T05:46:02.630Z,-2.90
2023-01-21T05:48:30.972Z,-2.80
2023-01-21T05:50:59.477Z,-2.90
2023-01-21T05:53:30.628Z,-2.80
2023-01-21T05:55:58.974Z,-2.90
2023-01-21T05:58:27.356Z,-2.90
2023-01-21T06:00:57.704Z,-2.80
2023-01-21T06:03:26.631Z,-2.80
2023-01-21T06:05:54.824Z,-2.80
2023-01-21T06:08:23.373Z,-2.90
2023-01-21T06:10:56.467Z,-2.80
2023-01-21T06:13:25.466Z,-2.80
2023-01-21T06:15:56.541Z,-2.80
2023-01-21T06:18:25.717Z,-2.90
2023-01-21T06:20:54.190Z,-2.90
2023-01-21T06:23:22.223Z,-2.90
2023-01-21T06:25:50.482Z,-2.90
2023-01-21T06:28:20.126Z,-2.80
2023-01-21T06:30:48.681Z,-2.90
2023-01-21T06:33:17.163Z,-3.00
2023-01-21T06:35:45.318Z,-3.00
2023-01-21T06:38:13.309Z,-2.90
2023-01-21T06:40:41.523Z,-2.90
2023-01-21T06:43:09.680Z,-2.90
2023-01-21T06:45:40.988Z,-3.00
2023-01-21T06:48:09.039Z,-3.00
2023-01-21T06:50:37.066Z,-3.00
2023-01-21T06:53:04.989Z,-2.90
2023-01-21T06:55:32.997Z,-2.90
2023-01-21T06:58:00.930Z,-3.10
2023-01-21T07:00:28.890Z,-3.10
2023-01-21T07:02:59.561Z,-3.20
2023-01-21T07:05:28.585Z,-3.20
2023-01-21T07:07:57.172Z,-3.20
2023-01-21T07:10:25.711Z,-3.30
2023-01-21T07:12:53.724Z,-3.30
2023-01-21T07:15:21.926Z,-3.20
2023-01-21T07:17:49.878Z,-3.10
2023-01-21T07:20:19.519Z,-3.10
2023-01-21T07:22:47.475Z,-3.10
2023-01-21T07:25:15.907Z,-3.00
2023-01-21T07:27:44.209Z,-2.90
2023-01-21T07:30:17.651Z,-3.00
2023-01-21T07:32:45.831Z,-3.00
2023-01-21T07:35:14.195Z,-3.00
2023-01-21T07:37:43.839Z,-3.00
2023-01-21T07:40:12.835Z,-3.00
2023-01-21T07:42:40.792Z,-3.10
2023-01-21T07:45:09.454Z,-3.10
2023-01-21T07:47:37.421Z,-3.10
2023-01-21T07:50:08.501Z,-3.10
2023-01-21T07:52:36.604Z,-3.00
2023-01-21T07:55:08.001Z,-3.10
2023-01-21T07:57:36.240Z,-3.00
2023-01-21T08:00:04.791Z,-3.00
2023-01-21T08:02:32.886Z,-2.90
2023-01-21T08:05:01.015Z,-2.80
2023-01-21T08:07:29.115Z,-2.80
2023-01-21T08:09:57.131Z,-2.90
2023-01-21T08:12:27.415Z,-2.80
2023-01-21T08:14:55.515Z,-2.80
2023-01-21T08:17:23.560Z,-2.90
2023-01-21T08:19:51.509Z,-2.90
2023-01-21T08:22:19.582Z,-2.90
2023-01-21T08:24:47.969Z,-2.90
2023-01-21T08:27:16.022Z,-2.90
2023-01-21T08:29:46.791Z,-2.80
2023-01-21T08:32:14.856Z,-2.80
2023-01-21T08:34:42.899Z,-2.80
2023-01-21T08:37:11.262Z,-2.70
2023-01-21T08:39:39.215Z,-2.70
2023-01-21T08:42:07.274Z,-2.70
2023-01-21T08:44:35.564Z,-2.60
2023-01-21T08:47:05.135Z,-2.60
2023-01-21T08:49:33.093Z,-2.60
2023-01-21T08:52:01.030Z,-2.50
2023-01-21T08:54:29.191Z,-2.50
2023-01-21T08:56:57.257Z,-2.50
2023-01-21T08:59:28.619Z,-2.60
2023-01-21T09:01:57.039Z,-2.50
2023-01-21T09:04:26.529Z,-2.50
2023-01-21T09:06:54.506Z,-2.50
2023-01-21T09:09:22.518Z,-2.50
2023-01-21T09:11:52.350Z,-2.40
2023-01-21T09:14:20.566Z,-2.40
2023-01-21T09:16:50.141Z,-2.40
2023-01-21T09:19:18.232Z,-2.50
2023-01-21T09:21:47.586Z,-2.40
2023-01-21T09:24:15.536Z,-2.20
2023-01-21T09:26:44.215Z,-2.10
2023-01-21T09:29:12.231Z,-2.10
2023-01-21T09:31:40.191Z,-2.10
2023-01-21T09:34:10.614Z,-2.10
2023-01-21T09:36:39.418Z,-2.00
2023-01-21T09:39:09.096Z,-2.10
2023-01-21T09:41:38.648Z,-2.10
2023-01-21T09:44:17.307Z,-2.20
2023-01-21T09:46:50.235Z,-2.20
2023-01-21T09:49:23.547Z,-2.20
2023-01-21T09:51:55.203Z,-2.20
2023-01-21T09:54:28.801Z,-2.20
2023-01-21T09:57:28.811Z,-2.20
2023-01-21T10:00:15.925Z,-2.10
2023-01-21T10:02:50.490Z,-2.00
2023-01-21T10:05:45.199Z,-1.90
2023-01-21T10:08:21.790Z,-1.90
2023-01-21T10:10:53.748Z,-1.90
2023-01-21T10:13:39.047Z,-1.80
2023-01-21T10:16:14.800Z,-1.80
2023-01-21T10:18:46.622Z,-1.80
2023-01-21T10:21:24.502Z,-1.80
2023-01-21T10:23:57.461Z,-1.80
2023-01-21T10:26:29.099Z,-1.80
2023-01-21T10:28:57.299Z,-1.80
2023-01-21T10:31:27.362Z,-1.80
2023-01-21T10:33:55.953Z,-1.70
2023-01-21T10:36:44.042Z,-1.70
2023-01-21T10:39:24.558Z,-1.70
2023-01-21T10:42:10.819Z,-1.70
2023-01-21T10:44:46.699Z,-1.70
2023-01-21T10:47:24.154Z,-1.60
2023-01-21T10:50:00.297Z,-1.60
2023-01-21T10:52:36.855Z,-1.60
2023-01-21T10:55:15.582Z,-1.40
2023-01-21T10:57:55.979Z,-1.50
2023-01-21T11:00:26.778Z,-1.50
2023-01-21T11:02:58.231Z,-1.50
2023-01-21T11:05:27.335Z,-1.50
2023-01-21T11:07:56.257Z,-1.50
2023-01-21T11:10:26.282Z,-1.50
2023-01-21T11:12:56.913Z,-1.50
2023-01-21T11:15:25.387Z,-1.40
2023-01-21T11:17:56.417Z,-1.50
2023-01-21T11:20:30.434Z,-1.50
2023-01-21T11:22:58.418Z,-1.40
2023-01-21T11:25:32.107Z,-1.40
2023-01-21T11:28:01.442Z,-1.50
2023-01-21T11:30:49.004Z,-1.40
2023-01-21T11:33:27.300Z,-1.40
2023-01-21T11:35:56.515Z,-1.40
2023-01-21T11:38:31.810Z,-1.40
2023-01-21T11:41:15.313Z,-1.40
2023-01-21T11:43:46.116Z,-1.40
2023-01-21T11:46:28.898Z,-1.40
2023-01-21T11:48:58.492Z,-1.30
2023-01-21T11:51:26.405Z,-1.40
2023-01-21T11:54:12.755Z,-1.40
2023-01-21T11:56:43.221Z,-1.50
2023-01-21T11:59:22.341Z,-1.50
2023-01-21T12:01:54.787Z,-1.50
2023-01-21T12:04:22.715Z,-1.50
2023-01-21T12:06:54.908Z,-1.50
2023-01-21T12:09:23.202Z,-1.50
2023-01-21T12:12:12.135Z,-1.60
2023-01-21T12:14:51.151Z,-1.50
2023-01-21T12:17:32.382Z,-1.60
2023-01-21T12:20:36.636Z,-1.50
2023-01-21T12:23:25.717Z,-1.60
2023-01-21T12:25:59.595Z,-1.60
2023-01-21T12:28:43.758Z,-1.50
2023-01-21T12:31:25.067Z,-1.50
2023-01-21T12:33:58.391Z,-1.50
2023-01-21T12:36:31.637Z,-1.50
2023-01-21T12:39:17.804Z,-1.40
2023-01-21T12:41:52.375Z,-1.40
2023-01-21T12:44:31.666Z,-1.40
2023-01-21T12:47:07.881Z,-1.40
2023-01-21T12:50:04.291Z,-1.50
2023-01-21T12:52:40.598Z,-1.50
2023-01-21T12:55:19.807Z,-1.50
2023-01-21T12:57:54.282Z,-1.50
2023-01-21T13:00:25.502Z,-1.50
2023-01-21T13:03:05.591Z,-1.50
2023-01-21T13:05:40.809Z,-1.40
2023-01-21T13:08:27.322Z,-1.50
2023-01-21T13:11:00.744Z,-1.50
2023-01-21T13:13:33.117Z,-1.50
2023-01-21T13:16:02.042Z,-1.50
2023-01-21T13:18:35.499Z,-1.50
2023-01-21T13:21:10.995Z,-1.50
2023-01-21T13:23:46.226Z,-1.50
2023-01-21T13:26:19.907Z,-1.60
2023-01-21T13:28:53.943Z,-1.60
2023-01-21T13:31:29.173Z,-1.60
2023-01-21T13:34:06.818Z,-1.60
2023-01-21T13:36:50.585Z,-1.60
2023-01-21T13:39:24.939Z,-1.60
2023-01-21T13:42:09.294Z,-1.70
2023-01-21T13:45:01.561Z,-1.70
2023-01-21T13:48:00.139Z,-1.60
2023-01-21T13:50:46.349Z,-1.70
2023-01-21T13:53:47.834Z,-1.70
2023-01-21T13:56:32.704Z,-1.70
2023-01-21T13:59:08.687Z,-1.80
2023-01-21T14:01:44.903Z,-1.80
2023-01-21T14:04:18.104Z,-1.70
2023-01-21T14:06:54.143Z,-1.70
2023-01-21T14:09:28.635Z,-1.70
2023-01-21T14:12:02.882Z,-1.70
2023-01-21T14:15:04.621Z,-1.70
2023-01-21T14:18:03.154Z,-1.70
2023-01-21T14:20:47.914Z,-1.60
2023-01-21T14:23:40.856Z,-1.70
2023-01-21T14:26:20.912Z,-1.60
2023-01-21T14:28:57.603Z,-1.60
2023-01-21T14:31:32.315Z,-1.70
2023-01-21T14:34:06.321Z,-1.70
2023-01-21T14:36:40.610Z,-1.70
2023-01-21T14:39:32.824Z,-1.70
2023-01-21T14:42:10.678Z,-1.70
2023-01-21T14:44:41.970Z,-1.70
2023-01-21T14:47:22.926Z,-1.70
2023-01-21T14:49:52.895Z,-1.70
2023-01-21T14:52:22.639Z,-1.70
2023-01-21T14:54:52.032Z,-1.80
2023-01-21T14:57:29.662Z,-1.70
2023-01-21T15:00:12.161Z,-1.70
2023-01-21T15:02:42.802Z,-1.80
2023-01-21T15:05:24.076Z,-1.80
2023-01-21T15:08:04.867Z,-1.70
2023-01-21T15:10:37.346Z,-1.70
2023-01-21T15:13:08.788Z,-1.70
2023-01-21T15:15:42.368Z,-1.60
2023-01-21T15:18:35.113Z,-1.70
2023-01-21T15:21:36.453Z,-1.60
2023-01-21T15:24:25.731Z,-1.70
2023-01-21T15:27:19.340Z,-1.70
2023-01-21T15:30:08.224Z,-1.70
2023-01-21T15:32:37.879Z,-1.70
2023-01-21T15:35:16.765Z,-1.80
2023-01-21T15:37:47.539Z,-1.70
2023-01-21T15:40:20.102Z,-1.80
2023-01-21T15:42:56.231Z,-1.80
2023-01-21T15:45:31.224Z,-1.90
2023-01-21T15:48:13.294Z,-1.90
2023-01-21T15:50:46.753Z,-1.90
2023-01-21T15:53:31.502Z,-1.90
2023-01-21T15:56:23.641Z,-1.90
2023-01-21T15:59:01.754Z,-1.90
2023-01-21T16:01:35.052Z,-1.90
2023-01-21T16:04:13.528Z,-1.90
2023-01-21T16:06:51.656Z,-1.90
2023-01-21T16:09:29.907Z,-1.90
2023-01-21T16:12:09.781Z,-1.80
2023-01-21T16:14:52.893Z,-1.90
2023-01-21T16:17:24.247Z,-1.90
2023-01-21T16:19:54.999Z,-1.90
2023-01-21T16:22:26.879Z,-1.90
2023-01-21T16:25:00.107Z,-2.00
2023-01-21T16:27:30.980Z,-2.00
2023-01-21T16:30:01.860Z,-2.00
2023-01-21T16:32:32.341Z,-2.00
2023-01-21T16:35:00.942Z,-2.00
2023-01-21T16:37:30.541Z,-2.00
2023-01-21T16:40:27.937Z,-2.00
2023-01-21T16:43:11.528Z,-2.00
2023-01-21T16:45:41.233Z,-2.00
2023-01-21T16:48:21.393Z,-1.90
2023-01-21T16:50:49.540Z,-2.10
2023-01-21T16:53:19.075Z,-2.20
2023-01-21T16:55:48.462Z,-2.30
2023-01-21T16:58:27.683Z,-2.30
2023-01-21T17:01:05.967Z,-2.20
2023-01-21T17:03:34.926Z,-2.30
2023-01-21T17:06:09.739Z,-2.30
2023-01-21T17:08:38.390Z,-2.40
2023-01-21T17:11:10.387Z,-2.30
2023-01-21T17:13:42.031Z,-2.40
2023-01-21T17:16:22.244Z,-2.30
2023-01-21T17:18:52.802Z,-2.30
2023-01-21T17:21:23.715Z,-2.30
2023-01-21T17:23:53.876Z,-2.40
2023-01-21T17:26:24.846Z,-2.30
2023-01-21T17:28:57.350Z,-2.30
2023-01-21T17:31:30.773Z,-2.30
2023-01-21T17:34:04.061Z,-2.20
2023-01-21T17:36:33.729Z,-2.30
2023-01-21T17:39:01.875Z,-2.20
2023-01-21T17:41:33.646Z,-2.30
2023-01-21T17:44:04.210Z,-2.30
2023-01-21T17:46:34.241Z,-2.30
2023-01-21T17:49:08.214Z,-2.30
2023-01-21T17:51:36.627Z,-2.30
2023-01-21T17:54:06.389Z,-2.30
2023-01-21T17:56:39.952Z,-2.40
2023-01-21T17:59:31.477Z,-2.40
2023-01-21T18:02:01.030Z,-2.40
2023-01-21T18:04:29.511Z,-2.40
2023-01-21T18:06:58.466Z,-2.30
2023-01-21T18:09:28.257Z,-2.30
2023-01-21T18:11:58.362Z,-2.40
2023-01-21T18:14:28.771Z,-2.40
2023-01-21T18:16:56.839Z,-2.40
2023-01-21T18:19:32.096Z,-2.40
2023-01-21T18:22:00.647Z,-2.40
2023-01-21T18:24:28.628Z,-2.40
2023-01-21T18:26:58.054Z,-2.40
2023-01-21T18:29:30.214Z,-2.40
2023-01-21T18:31:58.401Z,-2.30
2023-01-21T18:34:26.689Z,-2.40
2023-01-21T18:36:57.693Z,-2.40
2023-01-21T18:39:25.906Z,-2.40
2023-01-21T18:41:53.960Z,-2.50
2023-01-21T18:44:21.883Z,-2.40
2023-01-21T18:46:49.939Z,-2.40
2023-01-21T18:49:20.241Z,-2.40
2023-01-21T18:51:48.615Z,-2.40
2023-01-21T18:54:18.989Z,-2.40
2023-01-21T18:56:47.759Z,-2.40
2023-01-21T18:59:17.182Z,-2.40
2023-01-21T19:01:45.792Z,-2.50
2023-01-21T19:04:18.018Z,-2.50
2023-01-21T19:06:46.894Z,-2.50
2023-01-21T19:09:21.184Z,-2.50
2023-01-21T19:11:49.338Z,-2.50
2023-01-21T19:14:17.434Z,-2.50
2023-01-21T19:16:46.653Z,-2.50
2023-01-21T19:19:16.763Z,-2.50
2023-01-21T19:21:44.847Z,-2.50
2023-01-21T19:24:12.898Z,-2.50
2023-01-21T19:26:42.298Z,-2.50
2023-01-21T19:29:16.159Z,-2.50
2023-01-21T19:31:44.265Z,-2.50
2023-01-21T19:34:12.578Z,-2.50
2023-01-21T19:36:41.061Z,-2.50
2023-01-21T19:39:16.813Z,-2.60
2023-01-21T19:41:46.270Z,-2.60
2023-01-21T19:44:14.463Z,-2.60
2023-01-21T19:46:42.611Z,-2.50
2023-01-21T19:49:15.647Z,-2.60
2023-01-21T19:51:44.427Z,-2.50
2023-01-21T19:54:12.495Z,-2.50
2023-01-21T19:56:40.777Z,-2.40
2023-01-21T19:59:13.052Z,-2.40
2023-01-21T20:01:41.482Z,-2.40
2023-01-21T20:04:10.693Z,-2.40
2023-01-21T20:06:40.358Z,-2.40
2023-01-21T20:09:11.424Z,-2.40
2023-01-21T20:11:39.387Z,-2.30
2023-01-21T20:14:07.346Z,-2.30
2023-01-21T20:16:44.678Z,-2.30
2023-01-21T20:19:16.931Z,-2.30
2023-01-21T20:21:55.045Z,-2.10
2023-01-21T20:24:30.089Z,-1.90
2023-01-21T20:26:58.510Z,-1.80
2023-01-21T20:29:27.468Z,-1.70
2023-01-21T20:31:57.130Z,-1.80
2023-01-21T20:34:27.571Z,-1.90
2023-01-21T20:36:56.533Z,-1.90
2023-01-21T20:39:24.489Z,-1.90
2023-01-21T20:41:52.502Z,-1.80
2023-01-21T20:44:20.584Z,-1.90
2023-01-21T20:46:48.696Z,-2.00
2023-01-21T20:49:18.062Z,-2.10
2023-01-21T20:51:46.129Z,-2.10
2023-01-21T20:54:14.337Z,-2.10
2023-01-21T20:56:42.300Z,-2.10
2023-01-21T20:59:10.626Z,-2.10
2023-01-21T21:01:39.437Z,-2.00
2023-01-21T21:04:07.357Z,-1.90
2023-01-21T21:06:36.659Z,-1.80
2023-01-21T21:09:05.493Z,-1.80
2023-01-21T21:11:33.471Z,-1.70
2023-01-21T21:14:01.941Z,-1.80
2023-01-21T21:16:32.049Z,-1.70
2023-01-21T21:19:00.652Z,-1.70
2023-01-21T21:21:29.153Z,-1.60
2023-01-21T21:23:58.543Z,-1.70
2023-01-21T21:26:29.086Z,-1.70
2023-01-21T21:28:58.632Z,-1.50
2023-01-21T21:31:31.747Z,-1.50
2023-01-21T21:33:59.886Z,-1.40
2023-01-21T21:36:27.867Z,-1.40
2023-01-21T21:38:56.321Z,-1.40
2023-01-21T21:41:44.291Z,-1.30
2023-01-21T21:44:13.057Z,-1.20
2023-01-21T21:46:58.755Z,-1.10
2023-01-21T21:49:27.266Z,-1.10
2023-01-21T21:51:55.483Z,-1.10
2023-01-21T21:54:23.628Z,-0.90
2023-01-21T21:56:52.994Z,-0.80
2023-01-21T21:59:21.060Z,-0.70
2023-01-21T22:01:49.202Z,-0.70
2023-01-21T22:04:17.436Z,-0.50
2023-01-21T22:06:45.652Z,-0.50
2023-01-21T22:09:14.637Z,-0.40
2023-01-21T22:11:42.637Z,-0.40
2023-01-21T22:14:11.999Z,-0.40
2023-01-21T22:16:40.229Z,-0.40
2023-01-21T22:19:08.520Z,-0.40
2023-01-21T22:21:36.496Z,-0.40
2023-01-21T22:24:06.736Z,-0.40
2023-01-21T22:26:35.752Z,-0.30
2023-01-21T22:29:04.358Z,-0.30
2023-01-21T22:31:34.839Z,-0.30
2023-01-21T22:34:02.928Z,-0.20
2023-01-21T22:36:31.972Z,-0.20
2023-01-21T22:39:00.364Z,-0.20
2023-01-21T22:41:28.640Z,-0.20
2023-01-21T22:43:56.726Z,-0.10
2023-01-21T22:46:26.353Z,-0.10
2023-01-21T22:48:55.921Z,0.00
2023-01-21T22:51:24.200Z,0.00
2023-01-21T22:53:53.082Z,0.00
2023-01-21T22:56:31.483Z,0.10
2023-01-21T22:59:08.078Z,0.10
2023-01-21T23:01:36.464Z,0.10
2023-01-21T23:04:06.102Z,0.10
2023-01-21T23:06:36.699Z,0.10
2023-01-21T23:09:05.752Z,0.10
2023-01-21T23:11:36.304Z,0.10
2023-01-21T23:14:04.342Z,0.20
2023-01-21T23:16:32.319Z,0.20
2023-01-21T23:19:00.385Z,0.20
2023-01-21T23:21:29.775Z,0.20
2023-01-21T23:23:57.826Z,0.20
2023-01-21T23:26:25.857Z,0.20
2023-01-21T23:28:55.733Z,0.20
2023-01-21T23:31:24.755Z,0.10
2023-01-21T23:33:53.791Z,0.10
2023-01-21T23:36:22.038Z,0.10
2023-01-21T23:38:51.560Z,0.10
2023-01-21T23:41:21.019Z,0.10
2023-01-21T23:43:49.015Z,0.10
2023-01-21T23:46:19.413Z,0.10
2023-01-21T23:48:47.934Z,0.10
2023-01-21T23:51:17.454Z,0.20
2023-01-21T23:53:45.859Z,0.10
2023-01-21T23:56:16.977Z,0.20
2023-01-21T23:58:45.133Z,0.20
